sensor_id;sensor_type;location;lat;lon;timestamp;pressure;altitude;pressure_sealevel;temperature;humidity
59939;BME280;45801;51.810;19.444;2023-02-28T00:00:38;100495.23;;;1.55;52.17
59939;BME280;45801;51.810;19.444;2023-02-28T00:03:17;100494.63;;;1.54;52.28
59939;BME280;45801;51.810;19.444;2023-02-28T00:05:43;100496.35;;;1.54;52.26
59939;BME280;45801;51.810;19.444;2023-02-28T00:08:10;100495.79;;;1.53;51.76
59939;BME280;45801;51.810;19.444;2023-02-28T00:10:37;100497.36;;;1.55;51.82
59939;BME280;45801;51.810;19.444;2023-02-28T00:13:06;100497.23;;;1.55;51.52
59939;BME280;45801;51.810;19.444;2023-02-28T00:15:33;100498.34;;;1.56;51.09
59939;BME280;45801;51.810;19.444;2023-02-28T00:18:00;100500.17;;;1.57;51.00
59939;BME280;45801;51.810;19.444;2023-02-28T00:20:27;100497.30;;;1.58;51.05
59939;BME280;45801;51.810;19.444;2023-02-28T00:22:54;100500.04;;;1.58;51.22
59939;BME280;45801;51.810;19.444;2023-02-28T00:25:24;100497.25;;;1.58;51.38
59939;BME280;45801;51.810;19.444;2023-02-28T00:27:51;100497.48;;;1.58;51.30
59939;BME280;45801;51.810;19.444;2023-02-28T00:30:22;100499.42;;;1.61;51.39
59939;BME280;45801;51.810;19.444;2023-02-28T00:32:50;100496.69;;;1.63;50.78
59939;BME280;45801;51.810;19.444;2023-02-28T00:35:17;100496.30;;;1.64;50.81
59939;BME280;45801;51.810;19.444;2023-02-28T00:37:44;100497.85;;;1.64;50.22
59939;BME280;45801;51.810;19.444;2023-02-28T00:40:11;100499.02;;;1.64;50.42
59939;BME280;45801;51.810;19.444;2023-02-28T00:42:39;100496.84;;;1.61;50.77
59939;BME280;45801;51.810;19.444;2023-02-28T00:45:06;100493.49;;;1.58;50.82
59939;BME280;45801;51.810;19.444;2023-02-28T00:47:35;100493.06;;;1.58;50.00
59939;BME280;45801;51.810;19.444;2023-02-28T00:50:01;100497.88;;;1.70;52.04
59939;BME280;45801;51.810;19.444;2023-02-28T00:52:28;100492.73;;;2.13;50.39
59939;BME280;45801;51.810;19.444;2023-02-28T00:54:55;100492.14;;;2.19;48.68
59939;BME280;45801;51.810;19.444;2023-02-28T00:57:22;100492.14;;;2.12;49.01
59939;BME280;45801;51.810;19.444;2023-02-28T00:59:48;100495.58;;;2.01;48.88
59939;BME280;45801;51.810;19.444;2023-02-28T01:02:15;100498.17;;;1.90;49.29
59939;BME280;45801;51.810;19.444;2023-02-28T01:04:42;100502.31;;;1.81;49.49
59939;BME280;45801;51.810;19.444;2023-02-28T01:07:08;100504.52;;;1.74;49.51
59939;BME280;45801;51.810;19.444;2023-02-28T01:09:35;100501.33;;;1.66;49.17
59939;BME280;45801;51.810;19.444;2023-02-28T01:12:01;100501.13;;;1.57;49.31
59939;BME280;45801;51.810;19.444;2023-02-28T01:14:29;100501.85;;;1.50;49.27
59939;BME280;45801;51.810;19.444;2023-02-28T01:16:56;100500.98;;;1.48;50.17
59939;BME280;45801;51.810;19.444;2023-02-28T01:19:22;100499.66;;;1.46;50.42
59939;BME280;45801;51.810;19.444;2023-02-28T01:21:48;100499.14;;;1.42;49.73
59939;BME280;45801;51.810;19.444;2023-02-28T01:24:15;100499.02;;;1.39;50.17
59939;BME280;45801;51.810;19.444;2023-02-28T01:26:41;100501.23;;;1.35;50.21
59939;BME280;45801;51.810;19.444;2023-02-28T01:29:08;100500.67;;;1.31;50.24
59939;BME280;45801;51.810;19.444;2023-02-28T01:31:34;100502.14;;;1.25;50.13
59939;BME280;45801;51.810;19.444;2023-02-28T01:34:02;100504.51;;;1.19;49.94
59939;BME280;45801;51.810;19.444;2023-02-28T01:36:29;100503.02;;;1.15;50.24
59939;BME280;45801;51.810;19.444;2023-02-28T01:38:55;100502.73;;;1.11;50.14
59939;BME280;45801;51.810;19.444;2023-02-28T01:41:25;100504.85;;;1.06;50.34
59939;BME280;45801;51.810;19.444;2023-02-28T01:43:56;100500.97;;;1.02;50.90
59939;BME280;45801;51.810;19.444;2023-02-28T01:46:22;100498.77;;;0.98;51.17
59939;BME280;45801;51.810;19.444;2023-02-28T01:49:06;100495.00;;;0.95;51.24
59939;BME280;45801;51.810;19.444;2023-02-28T01:51:54;100493.04;;;0.92;51.11
59939;BME280;45801;51.810;19.444;2023-02-28T01:54:27;100497.02;;;0.88;51.10
59939;BME280;45801;51.810;19.444;2023-02-28T01:57:07;100496.85;;;0.85;51.39
59939;BME280;45801;51.810;19.444;2023-02-28T01:59:43;100497.21;;;0.81;51.32
59939;BME280;45801;51.810;19.444;2023-02-28T02:02:16;100497.23;;;0.78;51.47
59939;BME280;45801;51.810;19.444;2023-02-28T02:07:16;100493.67;;;0.70;50.95
59939;BME280;45801;51.810;19.444;2023-02-28T02:09:43;100493.42;;;0.68;51.24
59939;BME280;45801;51.810;19.444;2023-02-28T02:15:16;100494.55;;;0.61;50.80
59939;BME280;45801;51.810;19.444;2023-02-28T02:17:52;100494.19;;;0.57;50.97
59939;BME280;45801;51.810;19.444;2023-02-28T02:23:29;100495.49;;;0.53;51.84
59939;BME280;45801;51.810;19.444;2023-02-28T02:26:23;100498.02;;;0.49;52.27
59939;BME280;45801;51.810;19.444;2023-02-28T02:32:16;100496.75;;;0.43;52.11
59939;BME280;45801;51.810;19.444;2023-02-28T02:37:39;100494.53;;;0.37;52.79
59939;BME280;45801;51.810;19.444;2023-02-28T02:40:16;100490.63;;;0.35;52.51
59939;BME280;45801;51.810;19.444;2023-02-28T02:42:50;100490.87;;;0.33;52.55
59939;BME280;45801;51.810;19.444;2023-02-28T02:45:19;100486.79;;;0.30;52.81
59939;BME280;45801;51.810;19.444;2023-02-28T02:47:49;100489.56;;;0.29;52.92
59939;BME280;45801;51.810;19.444;2023-02-28T02:50:26;100490.90;;;0.26;53.14
59939;BME280;45801;51.810;19.444;2023-02-28T02:52:57;100494.98;;;0.23;53.20
59939;BME280;45801;51.810;19.444;2023-02-28T02:55:26;100497.17;;;0.17;53.48
59939;BME280;45801;51.810;19.444;2023-02-28T02:57:58;100493.38;;;0.15;53.67
59939;BME280;45801;51.810;19.444;2023-02-28T03:00:33;100493.45;;;0.13;53.23
59939;BME280;45801;51.810;19.444;2023-02-28T03:03:01;100498.17;;;0.12;53.39
59939;BME280;45801;51.810;19.444;2023-02-28T03:05:34;100499.59;;;0.11;53.69
59939;BME280;45801;51.810;19.444;2023-02-28T03:08:05;100497.23;;;0.09;53.52
59939;BME280;45801;51.810;19.444;2023-02-28T03:10:38;100495.69;;;0.08;53.08
59939;BME280;45801;51.810;19.444;2023-02-28T03:14:04;100500.88;;;0.05;53.65
59939;BME280;45801;51.810;19.444;2023-02-28T03:22:31;100508.44;;;-0.05;53.38
59939;BME280;45801;51.810;19.444;2023-02-28T03:25:18;100507.69;;;-0.07;53.43
59939;BME280;45801;51.810;19.444;2023-02-28T03:27:57;100505.54;;;-0.11;53.00
59939;BME280;45801;51.810;19.444;2023-02-28T03:30:36;100504.08;;;-0.14;53.03
59939;BME280;45801;51.810;19.444;2023-02-28T03:35:41;100507.33;;;-0.17;53.25
59939;BME280;45801;51.810;19.444;2023-02-28T03:38:24;100509.95;;;-0.20;53.37
59939;BME280;45801;51.810;19.444;2023-02-28T03:41:00;100512.60;;;-0.23;53.55
59939;BME280;45801;51.810;19.444;2023-02-28T03:43:34;100515.74;;;-0.26;53.58
59939;BME280;45801;51.810;19.444;2023-02-28T03:46:06;100516.09;;;-0.27;53.50
59939;BME280;45801;51.810;19.444;2023-02-28T03:48:40;100519.36;;;-0.29;53.25
59939;BME280;45801;51.810;19.444;2023-02-28T03:51:13;100523.23;;;-0.30;53.51
59939;BME280;45801;51.810;19.444;2023-02-28T03:53:52;100529.34;;;-0.32;53.36
59939;BME280;45801;51.810;19.444;2023-02-28T03:56:25;100535.08;;;-0.33;53.67
59939;BME280;45801;51.810;19.444;2023-02-28T04:01:47;100539.80;;;-0.36;53.66
59939;BME280;45801;51.810;19.444;2023-02-28T04:04:15;100536.45;;;-0.38;53.58
59939;BME280;45801;51.810;19.444;2023-02-28T04:06:43;100537.17;;;-0.40;53.75
59939;BME280;45801;51.810;19.444;2023-02-28T04:09:14;100537.30;;;-0.41;53.54
59939;BME280;45801;51.810;19.444;2023-02-28T04:11:44;100536.48;;;-0.43;53.50
59939;BME280;45801;51.810;19.444;2023-02-28T04:14:12;100533.00;;;-0.45;53.66
59939;BME280;45801;51.810;19.444;2023-02-28T04:16:40;100531.17;;;-0.46;53.86
59939;BME280;45801;51.810;19.444;2023-02-28T04:19:09;100530.81;;;-0.46;53.96
59939;BME280;45801;51.810;19.444;2023-02-28T04:21:39;100526.85;;;-0.48;53.76
59939;BME280;45801;51.810;19.444;2023-02-28T04:24:08;100525.10;;;-0.50;54.07
59939;BME280;45801;51.810;19.444;2023-02-28T04:26:36;100526.84;;;-0.51;54.25
59939;BME280;45801;51.810;19.444;2023-02-28T04:29:04;100532.16;;;-0.51;53.93
59939;BME280;45801;51.810;19.444;2023-02-28T04:31:31;100532.94;;;-0.54;53.67
59939;BME280;45801;51.810;19.444;2023-02-28T04:33:58;100534.52;;;-0.57;53.96
59939;BME280;45801;51.810;19.444;2023-02-28T04:36:24;100530.06;;;-0.58;54.04
59939;BME280;45801;51.810;19.444;2023-02-28T04:38:51;100534.61;;;-0.59;54.12
59939;BME280;45801;51.810;19.444;2023-02-28T04:41:19;100538.14;;;-0.61;54.21
59939;BME280;45801;51.810;19.444;2023-02-28T04:43:46;100540.65;;;-0.63;54.21
59939;BME280;45801;51.810;19.444;2023-02-28T04:46:13;100538.77;;;-0.65;54.43
59939;BME280;45801;51.810;19.444;2023-02-28T04:48:40;100537.48;;;-0.66;54.22
59939;BME280;45801;51.810;19.444;2023-02-28T04:51:09;100534.69;;;-0.68;54.15
59939;BME280;45801;51.810;19.444;2023-02-28T04:53:37;100535.02;;;-0.67;54.29
59939;BME280;45801;51.810;19.444;2023-02-28T04:56:06;100536.63;;;-0.67;54.47
59939;BME280;45801;51.810;19.444;2023-02-28T04:58:34;100538.06;;;-0.66;54.41
59939;BME280;45801;51.810;19.444;2023-02-28T05:01:03;100536.93;;;-0.68;54.39
59939;BME280;45801;51.810;19.444;2023-02-28T05:03:30;100538.33;;;-0.69;54.12
59939;BME280;45801;51.810;19.444;2023-02-28T05:05:57;100541.67;;;-0.72;54.11
59939;BME280;45801;51.810;19.444;2023-02-28T05:08:23;100545.91;;;-0.72;54.45
59939;BME280;45801;51.810;19.444;2023-02-28T05:10:51;100549.30;;;-0.73;54.60
59939;BME280;45801;51.810;19.444;2023-02-28T05:13:17;100547.91;;;-0.74;54.22
59939;BME280;45801;51.810;19.444;2023-02-28T05:15:47;100552.06;;;-0.76;54.16
59939;BME280;45801;51.810;19.444;2023-02-28T05:18:14;100554.83;;;-0.76;54.27
59939;BME280;45801;51.810;19.444;2023-02-28T05:20:40;100556.81;;;-0.78;55.29
59939;BME280;45801;51.810;19.444;2023-02-28T05:23:10;100552.23;;;-0.80;55.54
59939;BME280;45801;51.810;19.444;2023-02-28T05:25:39;100559.50;;;-0.82;55.41
59939;BME280;45801;51.810;19.444;2023-02-28T05:28:06;100559.16;;;-0.81;55.42
59939;BME280;45801;51.810;19.444;2023-02-28T05:30:32;100563.52;;;-0.79;55.58
59939;BME280;45801;51.810;19.444;2023-02-28T05:32:59;100562.60;;;-0.78;55.13
59939;BME280;45801;51.810;19.444;2023-02-28T05:35:26;100567.43;;;-0.78;55.03
59939;BME280;45801;51.810;19.444;2023-02-28T05:37:53;100567.86;;;-0.77;55.16
59939;BME280;45801;51.810;19.444;2023-02-28T05:40:20;100566.90;;;-0.77;54.95
59939;BME280;45801;51.810;19.444;2023-02-28T05:42:47;100565.71;;;-0.77;55.02
59939;BME280;45801;51.810;19.444;2023-02-28T05:45:13;100565.92;;;-0.76;54.97
59939;BME280;45801;51.810;19.444;2023-02-28T05:47:40;100562.71;;;-0.76;54.83
59939;BME280;45801;51.810;19.444;2023-02-28T05:50:07;100565.70;;;-0.75;54.74
59939;BME280;45801;51.810;19.444;2023-02-28T05:52:35;100566.17;;;-0.76;55.04
59939;BME280;45801;51.810;19.444;2023-02-28T05:55:02;100564.73;;;-0.75;54.97
59939;BME280;45801;51.810;19.444;2023-02-28T05:57:29;100565.30;;;-0.73;55.38
59939;BME280;45801;51.810;19.444;2023-02-28T05:59:56;100566.29;;;-0.72;55.55
59939;BME280;45801;51.810;19.444;2023-02-28T06:02:22;100566.36;;;-0.71;55.76
59939;BME280;45801;51.810;19.444;2023-02-28T06:04:49;100573.32;;;-0.70;56.01
59939;BME280;45801;51.810;19.444;2023-02-28T06:07:16;100579.39;;;-0.71;56.15
59939;BME280;45801;51.810;19.444;2023-02-28T06:09:43;100583.86;;;-0.70;55.97
59939;BME280;45801;51.810;19.444;2023-02-28T06:12:10;100586.39;;;-0.68;56.01
59939;BME280;45801;51.810;19.444;2023-02-28T06:14:36;100589.42;;;-0.67;55.96
59939;BME280;45801;51.810;19.444;2023-02-28T06:17:04;100589.89;;;-0.66;56.18
59939;BME280;45801;51.810;19.444;2023-02-28T06:19:32;100592.42;;;-0.65;56.05
59939;BME280;45801;51.810;19.444;2023-02-28T06:22:01;100595.42;;;-0.63;56.06
59939;BME280;45801;51.810;19.444;2023-02-28T06:24:27;100596.28;;;-0.60;56.01
59939;BME280;45801;51.810;19.444;2023-02-28T06:26:54;100594.15;;;-0.57;55.90
59939;BME280;45801;51.810;19.444;2023-02-28T06:29:21;100597.40;;;-0.54;56.10
59939;BME280;45801;51.810;19.444;2023-02-28T06:31:48;100603.27;;;-0.51;55.92
59939;BME280;45801;51.810;19.444;2023-02-28T06:34:16;100606.71;;;-0.49;55.63
59939;BME280;45801;51.810;19.444;2023-02-28T06:36:43;100608.81;;;-0.46;55.46
59939;BME280;45801;51.810;19.444;2023-02-28T06:39:09;100608.89;;;-0.43;55.53
59939;BME280;45801;51.810;19.444;2023-02-28T06:41:36;100609.03;;;-0.40;55.53
59939;BME280;45801;51.810;19.444;2023-02-28T06:44:05;100611.45;;;-0.36;55.77
59939;BME280;45801;51.810;19.444;2023-02-28T06:46:39;100608.48;;;-0.31;55.92
59939;BME280;45801;51.810;19.444;2023-02-28T06:49:06;100611.11;;;-0.26;56.16
59939;BME280;45801;51.810;19.444;2023-02-28T06:51:40;100610.98;;;-0.21;56.20
59939;BME280;45801;51.810;19.444;2023-02-28T06:54:08;100614.92;;;-0.14;56.11
59939;BME280;45801;51.810;19.444;2023-02-28T06:56:35;100615.16;;;-0.07;56.01
59939;BME280;45801;51.810;19.444;2023-02-28T06:59:03;100617.54;;;0.00;55.96
59939;BME280;45801;51.810;19.444;2023-02-28T07:01:30;100619.59;;;0.07;55.90
59939;BME280;45801;51.810;19.444;2023-02-28T07:03:58;100617.09;;;0.14;55.87
59939;BME280;45801;51.810;19.444;2023-02-28T07:06:26;100615.98;;;0.22;55.14
59939;BME280;45801;51.810;19.444;2023-02-28T07:08:53;100613.69;;;0.31;55.17
59939;BME280;45801;51.810;19.444;2023-02-28T07:11:22;100610.65;;;0.38;55.13
59939;BME280;45801;51.810;19.444;2023-02-28T07:13:53;100616.83;;;0.44;54.77
59939;BME280;45801;51.810;19.444;2023-02-28T07:16:21;100618.80;;;0.51;54.67
59939;BME280;45801;51.810;19.444;2023-02-28T07:18:48;100617.45;;;0.58;54.62
59939;BME280;45801;51.810;19.444;2023-02-28T07:21:15;100619.45;;;0.63;54.56
59939;BME280;45801;51.810;19.444;2023-02-28T07:23:42;100621.00;;;0.64;53.96
59939;BME280;45801;51.810;19.444;2023-02-28T07:26:14;100621.42;;;0.68;53.87
59939;BME280;45801;51.810;19.444;2023-02-28T07:28:41;100625.44;;;0.76;53.87
59939;BME280;45801;51.810;19.444;2023-02-28T07:31:09;100625.27;;;0.82;53.73
59939;BME280;45801;51.810;19.444;2023-02-28T07:33:37;100621.86;;;0.89;53.83
59939;BME280;45801;51.810;19.444;2023-02-28T07:36:08;100622.26;;;0.97;53.87
59939;BME280;45801;51.810;19.444;2023-02-28T07:38:36;100617.90;;;1.03;53.56
59939;BME280;45801;51.810;19.444;2023-02-28T07:41:04;100617.05;;;1.11;53.57
59939;BME280;45801;51.810;19.444;2023-02-28T07:43:32;100618.92;;;1.18;52.26
59939;BME280;45801;51.810;19.444;2023-02-28T07:46:03;100618.36;;;1.21;52.37
59939;BME280;45801;51.810;19.444;2023-02-28T07:48:30;100617.27;;;1.24;52.50
59939;BME280;45801;51.810;19.444;2023-02-28T07:50:58;100616.22;;;1.27;52.59
59939;BME280;45801;51.810;19.444;2023-02-28T07:53:26;100617.75;;;1.32;52.64
59939;BME280;45801;51.810;19.444;2023-02-28T07:55:57;100622.56;;;1.35;52.70
59939;BME280;45801;51.810;19.444;2023-02-28T07:58:24;100620.90;;;1.37;52.47
59939;BME280;45801;51.810;19.444;2023-02-28T08:00:51;100617.90;;;1.44;52.26
59939;BME280;45801;51.810;19.444;2023-02-28T08:03:19;100617.63;;;1.49;52.01
59939;BME280;45801;51.810;19.444;2023-02-28T08:05:47;100616.20;;;1.54;52.04
59939;BME280;45801;51.810;19.444;2023-02-28T08:08:15;100617.98;;;1.62;51.69
59939;BME280;45801;51.810;19.444;2023-02-28T08:10:41;100610.16;;;1.72;51.83
59939;BME280;45801;51.810;19.444;2023-02-28T08:13:08;100606.58;;;1.82;51.73
59939;BME280;45801;51.810;19.444;2023-02-28T08:15:35;100605.91;;;1.88;51.62
59939;BME280;45801;51.810;19.444;2023-02-28T08:18:02;100609.41;;;1.93;51.25
59939;BME280;45801;51.810;19.444;2023-02-28T08:20:29;100608.95;;;2.00;50.99
59939;BME280;45801;51.810;19.444;2023-02-28T08:25:31;100611.27;;;2.04;50.21
59939;BME280;45801;51.810;19.444;2023-02-28T08:27:58;100609.11;;;2.08;51.06
59939;BME280;45801;51.810;19.444;2023-02-28T08:30:25;100608.81;;;2.14;50.75
59939;BME280;45801;51.810;19.444;2023-02-28T08:32:51;100610.46;;;2.22;50.84
59939;BME280;45801;51.810;19.444;2023-02-28T08:35:18;100606.61;;;2.30;50.97
59939;BME280;45801;51.810;19.444;2023-02-28T08:37:47;100606.52;;;2.40;50.54
59939;BME280;45801;51.810;19.444;2023-02-28T08:40:15;100603.08;;;2.47;50.34
59939;BME280;45801;51.810;19.444;2023-02-28T08:42:45;100602.53;;;2.53;49.87
59939;BME280;45801;51.810;19.444;2023-02-28T08:45:13;100601.22;;;2.57;49.63
59939;BME280;45801;51.810;19.444;2023-02-28T08:47:39;100601.99;;;2.63;49.26
59939;BME280;45801;51.810;19.444;2023-02-28T08:50:07;100599.77;;;2.69;49.29
59939;BME280;45801;51.810;19.444;2023-02-28T08:52:34;100600.04;;;2.72;48.51
59939;BME280;45801;51.810;19.444;2023-02-28T08:55:00;100600.10;;;2.71;48.30
59939;BME280;45801;51.810;19.444;2023-02-28T08:57:27;100599.04;;;2.72;49.35
59939;BME280;45801;51.810;19.444;2023-02-28T08:59:54;100600.11;;;2.74;49.07
59939;BME280;45801;51.810;19.444;2023-02-28T09:02:20;100600.79;;;2.79;48.60
59939;BME280;45801;51.810;19.444;2023-02-28T09:04:47;100599.45;;;2.85;48.04
59939;BME280;45801;51.810;19.444;2023-02-28T09:07:13;100603.13;;;2.88;47.19
59939;BME280;45801;51.810;19.444;2023-02-28T09:09:40;100603.58;;;2.85;47.81
59939;BME280;45801;51.810;19.444;2023-02-28T09:12:21;100605.68;;;2.91;48.50
59939;BME280;45801;51.810;19.444;2023-02-28T09:14:48;100603.77;;;3.02;47.61
59939;BME280;45801;51.810;19.444;2023-02-28T09:17:14;100601.04;;;3.11;47.78
59939;BME280;45801;51.810;19.444;2023-02-28T09:19:41;100600.27;;;3.21;47.63
59939;BME280;45801;51.810;19.444;2023-02-28T09:22:10;100596.48;;;3.24;46.50
59939;BME280;45801;51.810;19.444;2023-02-28T09:24:38;100595.19;;;3.25;47.81
59939;BME280;45801;51.810;19.444;2023-02-28T09:27:05;100595.13;;;3.31;48.29
59939;BME280;45801;51.810;19.444;2023-02-28T09:29:33;100594.88;;;3.43;48.11
59939;BME280;45801;51.810;19.444;2023-02-28T09:32:01;100593.48;;;3.55;47.14
59939;BME280;45801;51.810;19.444;2023-02-28T09:34:28;100595.23;;;3.62;46.74
59939;BME280;45801;51.810;19.444;2023-02-28T09:36:57;100594.95;;;3.70;47.44
59939;BME280;45801;51.810;19.444;2023-02-28T09:39:23;100589.91;;;3.76;46.59
59939;BME280;45801;51.810;19.444;2023-02-28T09:41:52;100588.02;;;3.82;47.03
59939;BME280;45801;51.810;19.444;2023-02-28T09:44:35;100585.83;;;3.84;46.22
59939;BME280;45801;51.810;19.444;2023-02-28T09:47:30;100585.23;;;3.85;45.95
59939;BME280;45801;51.810;19.444;2023-02-28T09:52:50;100581.85;;;4.01;46.13
59939;BME280;45801;51.810;19.444;2023-02-28T09:55:21;100575.05;;;4.09;44.95
59939;BME280;45801;51.810;19.444;2023-02-28T09:57:50;100574.23;;;4.14;44.70
59939;BME280;45801;51.810;19.444;2023-02-28T10:00:30;100574.19;;;4.24;46.51
59939;BME280;45801;51.810;19.444;2023-02-28T10:06:12;100572.77;;;4.52;46.40
59939;BME280;45801;51.810;19.444;2023-02-28T10:11:29;100570.73;;;4.74;43.78
59939;BME280;45801;51.810;19.444;2023-02-28T10:14:19;100572.66;;;4.78;44.19
59939;BME280;45801;51.810;19.444;2023-02-28T10:16:55;100574.30;;;4.81;43.46
59939;BME280;45801;51.810;19.444;2023-02-28T10:19:46;100578.26;;;4.86;43.39
59939;BME280;45801;51.810;19.444;2023-02-28T10:25:22;100576.84;;;4.98;42.88
59939;BME280;45801;51.810;19.444;2023-02-28T10:27:50;100577.70;;;5.08;44.08
59939;BME280;45801;51.810;19.444;2023-02-28T10:30:20;100575.07;;;5.16;43.40
59939;BME280;45801;51.810;19.444;2023-02-28T10:32:50;100576.37;;;5.25;42.72
59939;BME280;45801;51.810;19.444;2023-02-28T10:35:19;100573.98;;;5.32;41.76
59939;BME280;45801;51.810;19.444;2023-02-28T10:37:58;100572.92;;;5.36;41.67
59939;BME280;45801;51.810;19.444;2023-02-28T10:40:33;100575.88;;;5.40;41.72
59939;BME280;45801;51.810;19.444;2023-02-28T10:46:13;100572.16;;;5.61;41.78
59939;BME280;45801;51.810;19.444;2023-02-28T10:49:02;100567.70;;;5.75;41.94
59939;BME280;45801;51.810;19.444;2023-02-28T10:51:40;100566.90;;;5.92;41.75
59939;BME280;45801;51.810;19.444;2023-02-28T10:54:40;100567.63;;;5.95;40.26
59939;BME280;45801;51.810;19.444;2023-02-28T10:57:22;100563.61;;;6.01;40.86
59939;BME280;45801;51.810;19.444;2023-02-28T11:00:17;100565.15;;;6.02;40.85
59939;BME280;45801;51.810;19.444;2023-02-28T11:02:45;100563.48;;;6.13;40.03
59939;BME280;45801;51.810;19.444;2023-02-28T11:05:35;100573.35;;;6.26;40.38
59939;BME280;45801;51.810;19.444;2023-02-28T11:08:12;100570.86;;;6.43;40.37
59939;BME280;45801;51.810;19.444;2023-02-28T11:10:47;100569.23;;;6.46;39.32
59939;BME280;45801;51.810;19.444;2023-02-28T11:13:19;100570.91;;;6.37;38.79
59939;BME280;45801;51.810;19.444;2023-02-28T11:15:51;100566.61;;;6.07;38.26
59939;BME280;45801;51.810;19.444;2023-02-28T11:18:26;100559.17;;;5.89;38.86
59939;BME280;45801;51.810;19.444;2023-02-28T11:20:55;100560.52;;;5.72;39.17
59939;BME280;45801;51.810;19.444;2023-02-28T11:23:26;100554.71;;;5.61;40.39
59939;BME280;45801;51.810;19.444;2023-02-28T11:25:56;100554.01;;;5.57;40.18
59939;BME280;45801;51.810;19.444;2023-02-28T11:28:34;100549.27;;;5.58;40.04
59939;BME280;45801;51.810;19.444;2023-02-28T11:31:04;100544.83;;;5.48;39.71
59939;BME280;45801;51.810;19.444;2023-02-28T11:33:52;100546.67;;;5.41;39.40
59939;BME280;45801;51.810;19.444;2023-02-28T11:36:29;100547.59;;;5.34;39.35
59939;BME280;45801;51.810;19.444;2023-02-28T11:38:59;100543.73;;;5.38;39.92
59939;BME280;45801;51.810;19.444;2023-02-28T11:47:28;100541.07;;;5.74;41.72
59939;BME280;45801;51.810;19.444;2023-02-28T11:56:03;100530.86;;;6.04;38.93
59939;BME280;45801;51.810;19.444;2023-02-28T12:01:18;100522.97;;;6.25;40.90
59939;BME280;45801;51.810;19.444;2023-02-28T12:03:58;100521.19;;;6.50;43.12
59939;BME280;45801;51.810;19.444;2023-02-28T12:12:10;100511.45;;;6.97;37.95
59939;BME280;45801;51.810;19.444;2023-02-28T12:14:55;100509.59;;;6.82;39.26
59939;BME280;45801;51.810;19.444;2023-02-28T12:23:26;100509.86;;;6.72;39.74
59939;BME280;45801;51.810;19.444;2023-02-28T12:28:41;100501.80;;;6.69;38.68
59939;BME280;45801;51.810;19.444;2023-02-28T12:33:46;100495.16;;;6.60;37.48
59939;BME280;45801;51.810;19.444;2023-02-28T12:36:16;100494.14;;;6.56;37.49
59939;BME280;45801;51.810;19.444;2023-02-28T12:38:55;100490.27;;;6.49;38.05
59939;BME280;45801;51.810;19.444;2023-02-28T12:41:31;100487.58;;;6.54;39.80
59939;BME280;45801;51.810;19.444;2023-02-28T12:44:03;100485.23;;;6.67;39.52
59939;BME280;45801;51.810;19.444;2023-02-28T12:46:35;100478.70;;;6.77;38.24
59939;BME280;45801;51.810;19.444;2023-02-28T12:49:17;100481.17;;;6.86;38.65
59939;BME280;45801;51.810;19.444;2023-02-28T12:51:46;100481.11;;;6.94;39.39
59939;BME280;45801;51.810;19.444;2023-02-28T12:57:19;100471.23;;;7.06;37.75
59939;BME280;45801;51.810;19.444;2023-02-28T13:02:53;100465.16;;;7.14;38.03
59939;BME280;45801;51.810;19.444;2023-02-28T13:05:44;100461.40;;;7.14;36.43
59939;BME280;45801;51.810;19.444;2023-02-28T13:11:28;100455.81;;;7.12;37.05
59939;BME280;45801;51.810;19.444;2023-02-28T13:14:03;100457.27;;;7.11;37.03
59939;BME280;45801;51.810;19.444;2023-02-28T13:16:56;100458.21;;;6.98;35.53
59939;BME280;45801;51.810;19.444;2023-02-28T13:19:27;100461.94;;;6.97;37.76
59939;BME280;45801;51.810;19.444;2023-02-28T13:21:55;100461.15;;;7.00;38.47
59939;BME280;45801;51.810;19.444;2023-02-28T13:29:40;100453.64;;;6.97;37.59
59939;BME280;45801;51.810;19.444;2023-02-28T13:39:47;100442.90;;;7.00;38.37
59939;BME280;45801;51.810;19.444;2023-02-28T13:42:32;100439.72;;;6.98;38.27
59939;BME280;45801;51.810;19.444;2023-02-28T13:55:28;100435.48;;;7.83;39.52
59939;BME280;45801;51.810;19.444;2023-02-28T14:03:12;100424.45;;;8.16;36.25
59939;BME280;45801;51.810;19.444;2023-02-28T14:05:41;100424.15;;;7.90;36.58
59939;BME280;45801;51.810;19.444;2023-02-28T14:08:16;100424.04;;;7.62;36.99
59939;BME280;45801;51.810;19.444;2023-02-28T14:10:46;100423.98;;;7.24;37.03
59939;BME280;45801;51.810;19.444;2023-02-28T14:13:37;100424.23;;;7.05;38.03
59939;BME280;45801;51.810;19.444;2023-02-28T14:16:15;100424.41;;;6.86;38.57
59939;BME280;45801;51.810;19.444;2023-02-28T14:18:58;100428.23;;;6.70;38.43
59939;BME280;45801;51.810;19.444;2023-02-28T14:21:34;100431.70;;;6.50;38.39
59939;BME280;45801;51.810;19.444;2023-02-28T14:27:34;100429.16;;;6.31;39.90
59939;BME280;45801;51.810;19.444;2023-02-28T14:33:05;100419.59;;;6.18;39.43
59939;BME280;45801;51.810;19.444;2023-02-28T14:38:32;100418.20;;;5.69;40.40
59939;BME280;45801;51.810;19.444;2023-02-28T14:41:04;100417.31;;;5.72;40.85
59939;BME280;45801;51.810;19.444;2023-02-28T14:43:32;100413.14;;;5.72;40.87
59939;BME280;45801;51.810;19.444;2023-02-28T14:46:01;100414.77;;;5.78;41.91
59939;BME280;45801;51.810;19.444;2023-02-28T14:48:28;100417.55;;;5.86;41.41
59939;BME280;45801;51.810;19.444;2023-02-28T14:50:57;100418.25;;;5.95;41.54
59939;BME280;45801;51.810;19.444;2023-02-28T14:53:28;100414.64;;;5.99;41.19
59939;BME280;45801;51.810;19.444;2023-02-28T14:55:55;100416.65;;;6.03;42.05
59939;BME280;45801;51.810;19.444;2023-02-28T14:58:30;100413.38;;;6.05;41.11
59939;BME280;45801;51.810;19.444;2023-02-28T15:01:02;100411.20;;;6.04;40.04
59939;BME280;45801;51.810;19.444;2023-02-28T15:03:30;100409.12;;;5.96;39.86
59939;BME280;45801;51.810;19.444;2023-02-28T15:06:05;100410.88;;;5.90;40.48
59939;BME280;45801;51.810;19.444;2023-02-28T15:08:32;100410.38;;;5.92;41.74